aviador You're here:

KAWM Decoded Metar

W MEMPHIS MUNI in AR, USA
Report Time2017-04-25 07:53:00
UTC Time2017-04-25 08:35:00
Flight Rules vfr VFR
Wind180° at 03 kt
W.Decomp.*RWY 17: 3.0 kt HW 0.5 kt RCW
W.Rank180° ranks 2
Current wind is below 180° avg. (8.0)
Visibility9999 m
Phenomena:N/A
Clouds:N/A
CeilingNone
Temp13°C (ISA -2)
Dew Point13°C (100% RH)
AAT12.9°C
QNH1007 hPa
Density Alt430 ft
Elevation213 ft
Report Wrong Elevation
Raw Report
KAWM 250753Z AUTO 18003KT 10SM CLR 13/13 A2974 RMK AO2 SLP069
T01280128=

Extra information for KAWM:More info

Metar Taf Metar & Taf Last 4 Metars F.Rules Stats Wind Profile Meteogram Temp Stats Airport Information Weather charts Add Link Nearby VenuesMetar ALERT Operation Metar Decoded Social comments

AIRNAV info for KAWM